Tiempo atmosférico en la estación meteorológica de Baza, Granada (801 m.)



Fecha
DESCASC
Temp. máxima en grados centígrados (hora)
DESCASC
Temp. mínima en grados centígrados (hora)
DESCASC
Temp. media en grados centígrados
DESCASC
Racha de viento máxima en m/sg (hora)
DESCASC
Velocidad máxima media en intervalos de 10 minutos(hora)
DESCASC
Precipitaciones diarias en mm
DESCASC
Precipitaciones de 00:00 a 06:00 en mm
DESCASC
Precipitaciones de 06:00 a 12:00 en mm
DESCASC
Precipitaciones de 12:00 a 18:00 en mm
DESCASC
Precipitaciones de 18:00 a 24:00 en mm
DESCASC
19-09-2019 29.7 (16:50) 13.5 (08:20) 21.6 7.5 (19:30) 5 (19:30) 0 0 0 0 0
18-09-2019 29.2 (17:30) 12.4 (08:20) 20.8 5.83 (22:10) 3.61 (20:30) 0 0 0 0 0
17-09-2019 28.5 (16:50) 16.3 (00:00) 22.4 8.61 (18:40) 4.72 (18:40) 1 0 0 0 1
16-09-2019 28.9 (16:40) 15.4 (00:00) 22.1 7.22 (21:10) 4.44 (21:10) -- -- -- -- 0
15-09-2019 27.4 (15:30) 17.2 (00:00) 22.3 7.22 (20:00) 4.17 (19:00) -- -- -- -- --
14-09-2019 25.2 (16:50) 14.5 (00:00) 19.9 8.89 (14:30) 5.28 (14:20) -- -- -- -- --
13-09-2019 21.6 (17:40) 12.6 (00:00) 17.1 9.44 (15:10) 5.56 (15:10) -- -- -- -- --
12-09-2019 19.4 (16:10) 10.9 (00:00) 15.1 8.89 (20:50) 5 (22:20) -- -- -- -- --
11-09-2019 18.6 (15:40) 11.8 (00:00) 15.2 12.22 (20:50) 7.5 (11:20) -- 0 0 -- --
10-09-2019 23.7 (18:10) 14.9 (23:59) 19.3 16.11 (23:10) 8.61 (23:20) 0 0 0 0 0
09-09-2019 29.1 (16:10) 11.9 (08:10) 20.5 12.78 (16:30) 8.33 (16:30) 0 0 0 0 0
08-09-2019 28.9 (17:20) 14.4 (00:00) 21.6 8.33 (14:10) 4.44 (16:40) 0.6 0 0 0 0.6
07-09-2019 27.6 (14:20) 17.3 (00:00) 22.4 9.44 (21:00) 5.28 (19:50) 0 0 0 0 0
06-09-2019 31.3 (17:00) 16.6 (00:00) 23.9 10 (20:00) 5.83 (19:50) 0 0 0 0 0
05-09-2019 31.5 (15:40) 15.2 (00:00) 23.3 9.72 (17:20) 6.11 (16:50) 0 0 0 0 0
04-09-2019 33.7 (16:20) 15.1 (00:00) 24.4 10 (18:30) 6.67 (17:00) 4 4 0 0 0
03-09-2019 33.5 (15:00) 15.8 (00:00) 24.7 12.78 (16:40) 5.83 (17:20) -- 0 0 -- 5.4
02-09-2019 32.8 (16:00) 18.4 (00:00) 25.6 10.28 (13:10) 5.83 (13:00) 0 0 0 0 0
01-09-2019 35.7 (17:20) 14.4 (00:00) 25.1 10.28 (19:30) 5.28 (19:30) 0 0 0 0 0
31-08-2019 33.6 (17:00) 14.8 (00:00) 24.2 7.5 (03:30) 4.72 (03:30) 0 0 0 0 0
30-08-2019 35.7 (15:50) 13.8 (00:00) 24.8 15.83 (17:50) 4.72 (17:10) 3.8 0 0 0.2 3.6
29-08-2019 35.1 (15:50) 14.7 (00:00) 24.9 12.5 (17:40) 6.67 (17:40) 0 0 0 0 0
28-08-2019 33.9 (18:50) 13.1 (00:00) 23.5 8.61 (20:00) 5.28 (20:00) 0 0 0 0 0
27-08-2019 30.2 (16:20) 14.7 (00:00) 22.5 10.28 (18:00) 5.56 (22:40) 0 0 0 0 0
26-08-2019 30.7 (17:20) 16.6 (00:00) 23.7 10.83 (21:30) 6.67 (21:30) 0 0 0 0 0
25-08-2019 33.3 (17:00) 13.4 (00:00) 23.3 10.83 (18:00) 6.67 (18:10) 0 0 0 0 0
24-08-2019 34.5 (16:30) 12.4 (00:00) 23.4 9.72 (18:00) 6.39 (18:00) 0 0 0 0 0
23-08-2019 33.7 (17:10) 12.1 (00:00) 22.9 10 (19:20) 6.11 (19:10) 0 0 0 0 0
22-08-2019 33.1 (16:50) 14 (00:00) 23.5 11.11 (17:30) 6.11 (20:30) 0 0 0 0 0
21-08-2019 32.2 (15:40) 17.8 (00:00) 25 11.39 (19:00) 6.67 (17:20) 0 0 0 0 0

Gráficas

Temp. máximas Temp. mínimas Temp. medias Precipitaciones Rachas de viento máximas Velocidades máximas media en intervalos de 10 minutos

Datos horarios

Fecha y hora oficial Temperatura (ºC) Velocidad del viento (km/h) Dirección del viento Racha (km/h) Dirección de racha Precipitación (mm) Presión (hPa) Tendencia (hPa) Humedad (%)
2019-09-19 23:00:00 19.2 9 Sudeste 22 Sudeste 0 928.8 1.8 83
2019-09-19 22:00:00 20 13 Sur 23 Sur 0 928.2 1.4 75
2019-09-19 21:00:00 21.3 11 Sudeste 23 Sudeste 0 927.4 0.8 67
2019-09-19 20:00:00 23.5 12 Sudeste 27 Sudeste 0 927 0.3 62
2019-09-19 19:00:00 26.1 17 Sudeste 27 Sudeste 0 926.8 -0.4 54
2019-09-19 18:00:00 27.8 16 Sudeste 26 Sudeste 0 926.6 -1 46
2019-09-19 17:00:00 28.9 5 Este 12 Sudeste 0 926.7 -1.4 35
2019-09-19 16:00:00 28.5 7 Noroeste 16 Norte 0 927.2 -1.3 36
2019-09-19 15:00:00 27.5 7 Noroeste 15 Norte 0 927.6 -1.3 35
2019-09-19 14:00:00 26 7 Noroeste 12 Norte 0 928.1 -0.9 43
2019-09-19 13:00:00 23.6 5 Norte 9 Norte 0 928.5 -0.4 63
2019-09-19 12:00:00 21 3 Noroeste 8 Noroeste 0 928.9 0.3 75
2019-09-19 11:00:00 17.9 4 Norte 9 Norte 0 929 0.7 90
2019-09-19 10:00:00 16 3 Noroeste 7 Sur 0 928.9 0.9 95
2019-09-19 09:00:00 14.1 5 Sur 10 Sudeste 0 928.6 0.8 96
2019-09-19 08:00:00 13.7 4 Sur 7 Sur 0 928.3 0.4 95
2019-09-19 07:00:00 14.3 3 Sudeste 7 Sur 0 928 -0.2 95
2019-09-19 06:00:00 14.9 3 Sur 5 Oeste 0 927.8 -0.5 95
2019-09-19 05:00:00 15.1 3 Sur 8 Sur 0 927.9 -0.5 94
2019-09-19 04:00:00 15.4 6 Sur 8 Sudeste 0 928.2 -0.3 93
2019-09-19 03:00:00 15.9 6 Sur 9 Sudeste 0 928.3 -0.3 92
2019-09-19 02:00:00 16.7 6 Sudeste 9 Sudeste 0 928.4 0 90
2019-09-19 01:00:00 18.1 3 Norte 14 Sudeste 0 928.5 0.5 88
2019-09-19 00:00:00 19 6 Sudeste 12 Sudeste 0 928.6 1.3 86
2019-09-18 23:00:00 20.3 9 Sur 21 Sudeste 0 928.4 1.7 78
2019-09-18 22:00:00 21.2 10 Sudeste 20 Sudeste 0 928 1.6 74
2019-09-18 21:00:00 22.5 9 Sur 19 Sudeste 0 927.3 1 70
2019-09-18 20:00:00 26 6 Oeste 13 Oeste 0 926.7 0.2 43
2019-09-18 19:00:00 28.1 8 Oeste 17 Noroeste 0 926.4 -0.6 34
2019-09-18 18:00:00 28.9 7 Noroeste 18 Oeste 0 926.3 -1.2 33
2019-09-18 17:00:00 28.9 8 Oeste 15 Noroeste 0 926.5 -1.4 32
2019-09-18 16:00:00 27.9 6 Noroeste 17 Noroeste 0 927 -1.3 38
2019-09-18 15:00:00 27.1 5 Oeste 16 Oeste 0 927.5 -0.9 35
2019-09-18 14:00:00 25.1 5 Noroeste 12 Noroeste 0 927.9 -0.4 48
2019-09-18 13:00:00 22.7 3 Nordeste 10 Norte 0 928.3 0.6 65
2019-09-18 12:00:00 20.3 4 Norte 12 Norte -- 928.4 0.9 77
2019-09-18 11:00:00 17.6 8 Norte 12 Norte -- 928.3 0.9 89
2019-09-18 10:00:00 14.9 3 Sudoeste 9 Sudeste -- 927.7 0.5 96
2019-09-18 09:00:00 12.9 4 Sudeste 8 Sudeste -- 927.5 0.4 96
2019-09-18 08:00:00 12.6 5 Sur 8 Sudeste -- 927.4 0 96
2019-09-18 07:00:00 13.3 2 Sudoeste 9 Sudeste -- 927.2 -0.3 96
2019-09-18 06:00:00 13.7 6 Sur 10 Sur -- 927.1 -0.5 95
2019-09-18 05:00:00 14.2 4 Sur 11 Sudeste -- 927.4 -0.5 94
2019-09-18 04:00:00 14.8 4 Este 9 Sur -- 927.5 -0.2 94
2019-09-18 03:00:00 15.7 8 Sur 14 Sur -- 927.6 -0.3 94
2019-09-18 02:00:00 16.6 2 Este 6 Norte -- 927.9 0 93
2019-09-18 01:00:00 17.2 6 Sudeste 11 Sudeste -- 927.7 0.4 92
2019-09-18 00:00:00 17.8 6 Sur 12 Sur -- 927.9 1 90
2019-09-17 23:00:00 17.4 5 Sur 14 Sudeste -- 927.9 1.1 90
2019-09-17 22:00:00 18.3 8 Sudeste 12 Sur -- 927.3 0.4 89
2019-09-17 21:00:00 19.8 8 Sur 12 Sudeste -- 926.9 0 86
2019-09-15 18:00:00 24.3 9 Sur 21 Sur 0 928.2 -0.9 72
2019-09-15 17:00:00 25.8 6 Sudoeste 13 Oeste 0.2 928.3 -1.2 56
2019-09-15 16:00:00 27.2 7 Noroeste 15 Norte 0 928.6 -1.4 51
2019-09-15 15:00:00 27.1 6 Noroeste 15 Noroeste 0 929.1 -1.3 50
2019-09-15 14:00:00 25.4 7 Oeste 13 Oeste 0 929.5 -1.1 57
2019-09-15 13:00:00 24.4 5 Sudeste 14 Sudeste 0 930 -0.2 62
2019-09-15 12:00:00 23 6 Este 17 Este 0 930.4 0.7 67
2019-09-15 11:00:00 20.5 6 Norte 9 Norte 0.2 930.6 1.1 86
2019-09-15 10:00:00 18.8 0 Calma 8 Sudeste 0 930.2 0.6 90
2019-09-15 09:00:00 17.5 4 Sur 7 Sur 0 929.7 0.1 93
2019-09-15 08:00:00 17.4 4 Sur 5 Sur 0 929.5 -0.5 94
2019-09-15 07:00:00 17.8 4 Sur 6 Sudoeste 0 929.6 -0.9 93
2019-09-15 06:00:00 18 5 Sur 7 Sudeste 0 929.6 -1.1 94
2019-09-15 05:00:00 18 3 Oeste 6 Norte 0 930 -0.8 92
2019-09-15 04:00:00 18 2 Nordeste 5 Este 0 930.5 -0.8 93
2019-09-15 03:00:00 17.9 0 Calma 5 Sudeste 0 930.7 -0.8 93
2019-09-15 02:00:00 18 3 Este 9 Norte 0 930.8 -0.7 92
2019-09-15 01:00:00 18 3 Este 7 Norte 0 931.3 0.2 93
2019-09-15 00:00:00 17.6 4 Este 8 Sudeste 0.2 931.5 1 93
2019-09-14 23:00:00 18.3 3 Sudeste 9 Nordeste 0 931.5 1.4 88
2019-09-14 22:00:00 19 5 Nordeste 17 Nordeste 0 931.1 1.3 88
2019-09-14 21:00:00 19.5 5 Norte 14 Nordeste 0 930.5 1 84
2019-09-14 20:00:00 21.1 10 Sudeste 23 Sudeste 0 930.1 0.4 77
2019-09-14 19:00:00 22.5 17 Sudeste 29 Sudeste 0 929.8 -0.2 71
2019-09-14 18:00:00 24.2 14 Sudeste 27 Sudeste 0.2 929.5 -1.3 64
2019-09-14 17:00:00 24.8 15 Sudeste 27 Sudeste 0 929.7 -1.8 63
2019-09-14 16:00:00 24.1 15 Sudeste 28 Sudeste 0 930 -2.2 65
2019-09-14 15:00:00 23.2 16 Sudeste 32 Sudeste 0 930.8 -1.3 69
2019-09-14 14:00:00 21 17 Sudeste 28 Sudeste 0 931.5 -0.7 75
2019-09-14 13:00:00 18.9 15 Sudeste 23 Sudeste 0 932.2 0.2 83
2019-09-14 12:00:00 16.6 6 Este 10 Norte 0 932.1 0.9 93
2019-09-14 11:00:00 16.1 5 Norte 11 Norte 0 932.2 1.1 94
2019-09-14 10:00:00 15.8 3 Noroeste 9 Oeste 0 932 0.7 95
2019-09-14 09:00:00 15.5 3 Sudeste 8 Sur 0.2 931.2 0.1 96
2019-09-14 08:00:00 15 2 Sudoeste 7 Noroeste 0 931.1 -0.1 96
2019-09-14 07:00:00 14.8 4 Sudoeste 7 Norte 0 931.3 -0.6 95
2019-09-14 06:00:00 14.7 4 Nordeste 9 Este 0.2 931.1 -1.2 94
2019-09-14 05:00:00 14.6 4 Este 8 Norte 0 931.2 -1.9 93
2019-09-14 04:00:00 14.7 4 Este 15 Este 0.2 931.9 -1.7 91
2019-09-14 03:00:00 15.1 8 Este 21 Sudeste 0.2 932.3 -1.3 90
2019-09-14 02:00:00 15.6 11 Sudeste 20 Sudeste 0.2 933.1 0.3 86
2019-09-14 01:00:00 15.8 6 Sudeste 25 Sudeste 0.4 933.6 1 88
2019-09-14 00:00:00 17 6 Sudeste 25 Sudeste 0.6 933.6 1.8 89
2019-09-13 23:00:00 17.6 9 Nordeste 23 Este 0.6 932.8 1.3 90
2019-09-13 22:00:00 17.9 10 Sudeste 20 Este 0.6 932.6 1.2 93
2019-09-13 21:00:00 18.4 8 Sur 15 Sudeste 1 931.8 1.1 88
2019-09-13 20:00:00 19.2 8 Sudeste 18 Este 1.2 931.5 0.8 83
2019-09-13 19:00:00 20.8 7 Este 23 Sudeste 1.4 931.4 -0.1 70
2019-09-13 18:00:00 21.4 10 Sudeste 22 Nordeste 1.2 930.7 -1.2 66
2019-09-13 17:00:00 19.9 9 Sudeste 19 Este 1.6 930.7 -0.6 78
2019-09-13 16:00:00 15.6 7 Sudoeste 34 Sudeste 2.2 931.5 -0.7 90
2019-09-13 15:00:00 18.2 12 Sur 26 Sudeste 3.2 931.9 -0.5 84
2019-09-13 14:00:00 20 4 Noroeste 15 Sudeste 3.8 931.3 -1.1 73
2019-09-13 13:00:00 19 6 Este 14 Este 3.6 932.2 0.1 75
2019-09-13 12:00:00 16.7 4 Sudeste 11 Sudeste 3.2 932.4 0.1 84
2019-09-13 11:00:00 14.1 4 Sudeste 10 Sudeste 3 932.4 0.2 97
2019-09-13 10:00:00 13.3 5 Sudeste 12 Sudeste 3.2 932.1 -0.7 97
2019-09-13 09:00:00 13 2 Norte 8 Sudeste 3.6 932.3 0 97
2019-09-13 08:00:00 13 6 Noroeste 18 Oeste 4.2 932.2 -0.6 97
2019-09-13 07:00:00 12.8 11 Sudoeste 22 Sur 4 932.8 -0.3 97
2019-09-13 06:00:00 12.8 9 Noroeste 13 Noroeste 4.6 932.3 -1.4 97
2019-09-13 05:00:00 12.9 6 Oeste 16 Norte 5.6 932.8 -0.6 97
2019-09-13 04:00:00 12.9 15 Norte 22 Norte 7.2 933.1 -0.3 97
2019-09-13 03:00:00 13.3 4 Oeste 22 Sudoeste 7.4 933.7 -0.1 97
2019-09-13 02:00:00 14.2 7 Oeste 26 Noroeste 5 933.4 -0.7 97
2019-09-13 01:00:00 13.5 10 Sudoeste 26 Sur 2.6 933.4 0.1 97
2019-09-13 00:00:00 13.5 10 Noroeste 23 Este 1.6 933.8 1.1 97
2019-09-12 23:00:00 13.8 10 Norte 28 Norte 0.8 934.1 1.8 97
2019-09-12 22:00:00 14.1 12 Noroeste 24 Norte 1.2 933.3 1 97
2019-09-12 21:00:00 15.1 9 Noroeste 32 Noroeste 1.8 932.7 -0.1 97
2019-09-12 20:00:00 15.2 4 Oeste 13 Sur 4.2 932.3 -0.8 96
2019-09-12 19:00:00 14.9 7 Sudoeste 13 Sur 2.4 932.3 -0.5 95
2019-09-12 18:00:00 15.3 3 Sur 19 Nordeste 1 932.8 -0.8 94
2019-09-12 17:00:00 15.6 14 Nordeste 28 Nordeste 1.8 933.1 -0.5 92
2019-09-12 16:00:00 19.2 10 Este 24 Nordeste 0 932.8 -1 63
2019-09-12 15:00:00 18 5 Nordeste 12 Nordeste 0 933.6 -0.3 72
2019-09-12 14:00:00 16.1 3 Sudoeste 8 Sur 0 933.6 0.2 79
2019-09-12 13:00:00 15.5 3 Sudeste 7 Nordeste 0 933.8 1 81
2019-09-12 12:00:00 14.9 2 Nordeste 7 Norte 0 933.9 1.6 84
2019-09-12 11:00:00 13.3 2 Norte 14 Sur 0 933.4 2.2 90
2019-09-12 10:00:00 12.2 5 Sur 9 Sur 0 932.8 1.8 96
2019-09-12 09:00:00 11.6 2 Sur 9 Nordeste 0.2 932.3 1.5 97
2019-09-12 08:00:00 11.5 8 Nordeste 14 Norte 0.4 931.2 0.6 96
2019-09-12 07:00:00 11.6 12 Norte 17 Norte 2.4 931 -0.8 96
2019-09-12 06:00:00 11.7 2 Nordeste 7 Este 3.8 930.8 -1.6 96
2019-09-12 05:00:00 12.1 6 Sudoeste 9 Sur 2.2 930.6 -1.7 96
2019-09-12 04:00:00 11.5 3 Sudeste 9 Este 0.8 931.8 -0.7 95
2019-09-12 03:00:00 11.2 3 Noroeste 5 Este 0 932.4 -0.5 95
2019-09-12 02:00:00 11.1 4 Sudoeste 9 Sudeste 0 932.3 0 93
2019-09-12 01:00:00 12.1 5 Sudoeste 9 Sudeste 0 932.5 0.7 92
2019-09-12 00:00:00 12.5 7 Este 12 Este 0.2 932.9 1.9 92
2019-09-11 23:00:00 13.4 6 Sur 9 Sudoeste 0 932.3 2.9 89
2019-09-11 22:00:00 13.9 4 Sudoeste 15 Sudeste 0.8 931.8 2.5 89
2019-09-11 21:00:00 15.1 12 Este 44 Este 0.2 931 1.9 78
2019-09-11 20:00:00 17.8 10 Norte 22 Norte 0 929.4 0.5 46
2019-09-11 19:00:00 18 5 Sur 12 Norte 0 929.3 0.7 52
2019-09-11 18:00:00 18.3 8 Noroeste 28 Norte 0 929.1 0.4 48
2019-09-11 17:00:00 17 8 Noroeste 19 Oeste 0 928.9 -0.5 56
2019-09-11 16:00:00 18.2 13 Oeste 30 Sudoeste 0 928.6 -0.7 44
2019-09-11 15:00:00 17.6 18 Oeste 32 Oeste 0 928.7 0 45
2019-09-11 14:00:00 14.5 18 Oeste 33 Oeste 0 929.4 1.1 54
2019-09-11 13:00:00 14.2 21 Oeste 39 Oeste 0 929.3 1.4 53
2019-09-11 12:00:00 13.9 24 Oeste 43 Oeste 0 928.7 1 53
2019-09-11 11:00:00 13.5 24 Oeste 39 Oeste 0 928.3 1.1 55
2019-09-11 10:00:00 13.4 19 Oeste 38 Oeste 0 927.9 1.3 54
2019-09-11 09:00:00 12.6 20 Oeste 33 Oeste 0 927.7 1.3 57
2019-09-11 08:00:00 12.3 21 Oeste 34 Oeste 0 927.2 0.7 58
2019-09-11 07:00:00 11.9 14 Sudoeste 26 Sudoeste 0 926.6 0.2 59
2019-09-11 06:00:00 12.3 17 Oeste 28 Oeste 0 926.4 -0.6 56
2019-09-11 05:00:00 12.1 15 Oeste 34 Oeste 0 926.5 -0.7 56
2019-09-11 04:00:00 12.5 19 Oeste 31 Oeste 0 926.4 -0.8 55
2019-09-11 03:00:00 13.3 18 Oeste 29 Oeste 0 927 -0.3 53
2019-09-11 02:00:00 14 17 Oeste 32 Sudoeste 0 927.2 1.1 50
2019-09-11 01:00:00 14.5 13 Oeste 38 Norte 0 927.2 1.7 48
2019-09-11 00:00:00 14.9 13 Norte 58 Norte 0 927.3 2.3 43
2019-09-10 23:00:00 17.9 15 Noroeste 34 Noroeste 0 926.1 1.7 27
2019-09-10 22:00:00 18.4 18 Noroeste 31 Noroeste 0 925.5 1.7 26
2019-09-10 21:00:00 18.8 22 Noroeste 38 Noroeste 0 925 1.6 24
2019-09-10 20:00:00 21.2 18 Noroeste 41 Noroeste 0 924.4 1.2 19
2019-09-10 19:00:00 22.8 24 Noroeste 38 Norte 0 923.8 0.2 18
2019-09-10 18:00:00 23.6 24 Noroeste 48 Noroeste 0 923.4 -0.6 20
2019-09-10 17:00:00 23.1 28 Oeste 50 Oeste 0 923.2 -0.9 25
2019-09-10 16:00:00 22.5 24 Oeste 44 Oeste 0 923.6 -0.4 31
2019-09-10 15:00:00 22.1 28 Noroeste 47 Noroeste 0 924 0 33
2019-09-10 14:00:00 22 25 Noroeste 45 Noroeste 0 924.1 0.1 33
2019-09-10 13:00:00 21.4 21 Noroeste 40 Noroeste 0 924 0.3 38
2019-09-10 12:00:00 20.2 22 Noroeste 39 Oeste 0 924 0.5 37
2019-09-10 11:00:00 18.5 16 Noroeste 31 Oeste 0 924 0.5 48
2019-09-10 10:00:00 18.3 15 Oeste 28 Oeste 0 923.7 0.1 35
2019-09-10 09:00:00 18.4 13 Oeste 31 Oeste 0 923.5 -1 39
2019-09-10 08:00:00 17.5 9 Noroeste 32 Oeste 0 923.5 -1.6 51
2019-09-10 07:00:00 18.4 13 Oeste 33 Oeste 0 923.6 -2.4 54
2019-09-10 06:00:00 19.6 10 Oeste 33 Oeste 0 924.5 -2.1 51
2019-09-10 05:00:00 20.4 14 Sudoeste 32 Sudoeste 0 925.1 -1.8 48
2019-09-10 04:00:00 21 13 Sudoeste 31 Sudoeste 0 926 -1.4 46
2019-09-10 03:00:00 21.3 21 Oeste 39 Sudoeste 0 926.6 -0.8 47
2019-09-10 02:00:00 21.4 20 Oeste 32 Oeste 0 926.9 -0.7 45
2019-09-10 01:00:00 21.1 14 Oeste 24 Oeste 0 927.4 -0.1 46
2019-09-10 00:00:00 20.9 9 Noroeste 22 Oeste 0 927.4 0.2 45
2019-09-09 23:00:00 21.7 12 Oeste 25 Oeste 0 927.6 0.3 41
2019-09-09 22:00:00 20.4 3 Este 14 Sudoeste 0 927.5 0 50
2019-09-09 21:00:00 21.8 2 Sur 10 Sur 0 927.2 -0.1 48
2019-09-09 20:00:00 24.3 5 Sur 21 Oeste 0 927.3 -0.1 39
2019-09-09 19:00:00 24.2 14 Oeste 32 Oeste 0 927.5 0.6 34
2019-09-09 18:00:00 24.1 15 Sudoeste 32 Oeste 0 927.3 -0.5 33
2019-09-09 17:00:00 23.8 20 Sudoeste 46 Sudoeste 0 927.4 -1.1 34
2019-09-09 16:00:00 28.5 9 Noroeste 22 Oeste 0 926.9 -2.4 25
2019-09-09 15:00:00 28.2 6 Sur 14 Sudoeste 0 927.8 -2 25
2019-09-09 14:00:00 26.6 5 Norte 17 Norte 0 928.5 -1.4 32
2019-09-09 13:00:00 24 5 Norte 15 Norte 0 929.3 -0.6 44
2019-09-09 12:00:00 20.7 4 Noroeste 9 Noroeste 0 929.8 0.2 59
2019-09-09 11:00:00 17 4 Norte 9 Norte 0 929.9 0.5 77
2019-09-09 10:00:00 15.7 6 Noroeste 9 Noroeste 0 929.9 0.7 87
2019-09-09 09:00:00 13 2 Este 7 Sudeste 0 929.6 0.6 93
2019-09-09 08:00:00 12 4 Sudeste 7 Sudeste 0 929.4 0.1 91
2019-09-09 07:00:00 12.9 4 Sur 9 Sudeste 0 929.2 0 90
2019-09-09 06:00:00 14.3 3 Nordeste 5 Este 0 929 -0.5 91
2019-09-09 05:00:00 15 0 Calma 8 Sudoeste 0 929.3 -0.4 86
2019-09-09 04:00:00 15.6 5 Sudoeste 10 Sur 0 929.2 -0.4 85
2019-09-09 03:00:00 15.9 6 Sur 11 Sur 0 929.5 -0.1 83
2019-09-09 02:00:00 17 7 Sudeste 12 Sur 0 929.7 0.2 88
2019-09-09 01:00:00 17.9 6 Este 9 Este 0 929.6 0.5 82
2019-09-09 00:00:00 19 6 Sur 15 Sudeste 0 929.6 1.1 75
2019-09-08 23:00:00 20.4 8 Sur 14 Sudoeste 0 929.5 1.6 55
2019-09-08 22:00:00 21.3 5 Sur 19 Sudoeste 0 929.1 1.8 51
2019-09-08 21:00:00 22.4 12 Sudoeste 22 Sudoeste 0 928.5 1.4 48
2019-09-08 20:00:00 23.5 9 Sudeste 19 Sudeste 0 927.9 0.8 50
2019-09-08 19:00:00 25.3 6 Sur 18 Sudeste 0.6 927.3 -0.2 38
2019-09-08 18:00:00 26.3 6 Sudeste 23 Sudeste 0 927.1 -1 39
2019-09-08 17:00:00 28.3 9 Sudeste 27 Sudeste 0 927.1 -1.5 31
2019-09-08 16:00:00 27.2 10 Sudeste 24 Sudeste 0 927.5 -1.5 33
2019-09-08 15:00:00 26.5 5 Este 30 Sudeste 0 928.1 -1.1 33
2019-09-08 14:00:00 25.4 7 Este 21 Este 0 928.6 -0.5 34
2019-09-08 13:00:00 22.8 8 Este 17 Sudeste 0 929 0.2 43
2019-09-08 12:00:00 21.1 7 Sudeste 15 Este 0 929.2 0.6 50
2019-09-08 11:00:00 19 8 Norte 13 Norte 0 929.1 0.6 72
2019-09-08 10:00:00 18 7 Sudeste 14 Sudeste 0 928.8 0.3 71
2019-09-08 09:00:00 15.3 5 Sudeste 10 Sudeste 0 928.6 0.1 89
2019-09-08 08:00:00 14.8 2 Este 6 Sur 0 928.5 -0.3 89
2019-09-08 07:00:00 15.5 4 Sur 8 Oeste 0 928.5 -0.5 85
2019-09-08 06:00:00 16.2 4 Oeste 14 Nordeste 0 928.5 -0.7 81
2019-09-08 05:00:00 16.5 8 Nordeste 13 Nordeste 0 928.8 -0.7 84
2019-09-08 04:00:00 16.7 5 Nordeste 17 Sudeste 0 929 -0.9 83
2019-09-08 03:00:00 17.1 9 Sudeste 15 Sudeste 0 929.2 -0.9 80
2019-09-08 02:00:00 17.4 9 Sudeste 20 Sudeste 0 929.5 -0.5 79
2019-09-08 01:00:00 18.3 11 Sudeste 23 Sudeste 0 929.9 0.8 75
2019-09-08 00:00:00 18.4 10 Sudeste 30 Sudeste 0 930.1 1.9 75
2019-09-07 23:00:00 19.2 15 Sudeste 29 Sudeste 0 930 2.5 77
2019-09-07 22:00:00 19.9 17 Sur 31 Sudeste 0 929.1 1.8 75
2019-09-07 21:00:00 21.2 15 Sudeste 34 Sudeste 0 928.2 0.8 65
2019-09-07 20:00:00 23.7 19 Sudeste 33 Sudeste 0 927.5 -0.5 54
2019-09-07 19:00:00 25.5 13 Sudeste 25 Sudeste 0 927.3 -1 46
2019-09-07 18:00:00 25.7 12 Sudeste 26 Este 0 927.4 -1.5 44
2019-09-07 17:00:00 26.1 11 Sudeste 23 Sudeste 0 928 -1.5 41
2019-09-07 16:00:00 27.3 11 Este 27 Sudeste 0 928.3 -1.4 38
2019-09-07 15:00:00 26.7 15 Sudeste 28 Este 0 928.9 -1.3 42
2019-09-07 14:00:00 26.7 14 Sudeste 26 Este 0 929.5 -0.8 41
2019-09-07 13:00:00 24.9 13 Sudeste 30 Sudeste 0 929.7 -0.6 47
2019-09-07 12:00:00 23.6 12 Sudeste 23 Sudeste 0 930.2 0.4 52
2019-09-07 11:00:00 21.1 14 Este 28 Sudeste 0 930.3 0.7 64
2019-09-07 10:00:00 19.5 15 Sudeste 24 Sudeste 0 930.3 1.2 74
2019-09-07 09:00:00 18.1 9 Sudeste 16 Sudeste 0 929.8 0.5 85
2019-09-07 08:00:00 17.8 6 Sudeste 17 Sudeste 0 929.6 0.1 86
2019-09-07 07:00:00 17.3 8 Sudeste 12 Sudeste 0 929.1 -0.8 87
2019-09-07 06:00:00 17.9 7 Este 15 Sur 0 929.3 -0.8 87
2019-09-07 05:00:00 17.8 9 Sur 15 Sur 0 929.5 -0.6 90
2019-09-07 04:00:00 18.1 6 Sudeste 12 Sudeste 0 929.9 0 88
2019-09-07 03:00:00 18.5 7 Sudeste 17 Sudeste 0 930.1 0.3 86
2019-09-07 02:00:00 18.1 9 Sudeste 22 Sudeste 0 930.1 0.6 85
2019-09-07 01:00:00 18.5 13 Sudeste 25 Sur 0 929.9 1.1 80
2019-09-07 00:00:00 18.8 15 Sur 23 Sudeste 0 929.8 2.1 77
2019-09-06 23:00:00 19.5 11 Sur 19 Sudeste 0 929.5 2.5 70
2019-09-06 22:00:00 20.7 11 Sudeste 24 Sudeste 0 928.8 2.2 66
2019-09-06 21:00:00 22.5 10 Sudeste 33 Sudeste 0 927.7 1 60
2019-09-06 20:00:00 24.2 20 Sudeste 36 Sudeste 0 927 -0.1 56
2019-09-06 19:00:00 27.4 14 Sudeste 31 Sudeste 0 926.6 -1.2 42
2019-09-06 18:00:00 29.8 5 Sudeste 22 Este 0 926.7 -1.9 33
2019-09-06 17:00:00 31.2 12 Sudeste 18 Sudeste 0 927.1 -2.1 27
2019-09-06 16:00:00 30.5 7 Sudeste 21 Sudeste 0 927.8 -1.9 27
2019-09-06 15:00:00 28.3 8 Este 22 Sudeste 0 928.6 -1.4 40
2019-09-06 14:00:00 27.6 9 Sudeste 26 Sudeste 0 929.2 -0.7 43
2019-09-06 13:00:00 25.2 13 Sudeste 25 Sudeste 0 929.7 -0.2 52
2019-09-06 12:00:00 23.5 11 Sudeste 25 Sudeste 0 930 0.4 59
2019-09-06 11:00:00 21.6 12 Sudeste 22 Sudeste 0 929.9 0.3 67
2019-09-06 10:00:00 19.8 10 Sudeste 18 Este 0 929.9 0.6 78
2019-09-06 09:00:00 17.5 3 Este 5 Sudeste 0 929.6 0.5 91
2019-09-06 08:00:00 16.7 0 Calma 5 Sudeste 0 929.6 0.2 93
2019-09-06 07:00:00 16.6 4 Nordeste 9 Sudeste 0 929.3 -0.3 92
2019-09-06 06:00:00 17.5 7 Sudeste 15 Sudeste 0 929.1 -0.7 90
2019-09-06 05:00:00 17.7 8 Sudeste 14 Sudeste 0 929.4 -0.2 88
2019-09-06 04:00:00 17.9 7 Sur 10 Sur 0 929.6 -0.1 89
2019-09-06 03:00:00 18.1 4 Sudeste 18 Sudeste 0 929.8 0.1 86
2019-09-06 02:00:00 18.7 11 Sudeste 21 Sur 0 929.6 0.5 83
2019-09-06 01:00:00 19.1 10 Sur 17 Sudeste 0 929.7 0.5 81
2019-09-06 00:00:00 19.7 8 Este 24 Sudeste 0 929.7 1.5 77
2019-09-05 23:00:00 20.4 15 Sudeste 27 Sur 0 929.1 1.4 75
2019-09-05 22:00:00 20.9 15 Sudeste 25 Sudeste 0 929.2 2.1 76
2019-09-05 21:00:00 22.6 14 Sudeste 27 Sudeste 0 928.2 0.9 67
2019-09-05 20:00:00 25.4 15 Sudeste 33 Sudeste 0 927.7 0.9 55
2019-09-05 19:00:00 29.3 12 Sudeste 24 Sudeste 0 927.1 -0.3 43
2019-09-05 18:00:00 28 10 Nordeste 35 Este 0 927.3 -0.6 44
2019-09-05 17:00:00 30.4 19 Este 35 Este 0 926.8 -1.5 39
2019-09-05 16:00:00 31.1 18 Sudeste 32 Sudeste 0 927.4 -1.2 38
2019-09-05 15:00:00 30.2 13 Sudeste 22 Sudeste 0 927.9 -0.9 41
2019-09-05 14:00:00 28.5 7 Nordeste 18 Norte 0 928.3 -0.6 42
2019-09-05 13:00:00 27.1 5 Nordeste 14 Sudeste 0 928.6 -0.4 48
2019-09-05 12:00:00 23.8 5 Este 12 Sudeste 0 928.8 -0.1 64
2019-09-05 11:00:00 19.9 4 Nordeste 7 Nordeste 0 928.9 0.5 81
2019-09-05 10:00:00 17.1 2 Noroeste 10 Norte 0 929 1 90
2019-09-05 09:00:00 15.6 5 Norte 8 Norte 0 928.9 1.3 92
2019-09-05 08:00:00 16.5 2 Sudoeste 13 Sudeste 0 928.4 0.7 94
2019-09-05 07:00:00 16.9 6 Sur 16 Sudeste 0 928 0.2 94
2019-09-05 06:00:00 16.6 12 Sudeste 19 Sur 0 927.6 -0.5 94
2019-09-05 05:00:00 15.8 3 Sur 10 Sur 0 927.7 -0.9 90
2019-09-05 04:00:00 16.2 5 Sur 9 Sur 0 927.8 -1.2 89
2019-09-05 03:00:00 17 6 Sur 8 Sudeste 0 928.1 -1 90
2019-09-05 02:00:00 18.2 4 Sur 7 Sudeste 0 928.6 -0.3 86
2019-09-05 01:00:00 19.8 3 Oeste 8 Este 0 929 -0.5 79
2019-09-05 00:00:00 20.6 5 Nordeste 15 Sudeste 0 929.1 0.3 72
2019-09-04 23:00:00 21.7 10 Sudeste 17 Sur 0 928.9 0.5 66
2019-09-04 22:00:00 21.9 4 Sudoeste 10 Sudeste 0 929.5 1.1 68
2019-09-04 21:00:00 22.8 7 Este 24 Sudeste 0 928.8 0.6 64
2019-09-04 20:00:00 24.3 15 Sudeste 29 Sur 0 928.4 0.3 54
2019-09-04 19:00:00 24 13 Sur 36 Este 0 928.4 0 57
2019-09-04 18:00:00 26.1 13 Este 30 Norte 0 928.2 -1 50
2019-09-04 17:00:00 31.1 24 Norte 34 Norte 0 928.1 -1.8 27
2019-09-04 16:00:00 33.3 4 Sudeste 16 Noroeste 0 928.4 -2.3 23
2019-09-04 15:00:00 31.2 9 Oeste 18 Noroeste 0 929.2 -2.1 29
2019-09-04 14:00:00 29 5 Noroeste 13 Norte 0 929.9 -1.6 39
2019-09-04 13:00:00 25.5 3 Nordeste 8 Nordeste 0 930.7 -0.7 54
2019-09-04 12:00:00 22.5 3 Sudeste 9 Norte 0 931.3 0 68
2019-09-04 11:00:00 19.4 5 Norte 10 Norte 0 931.5 0.4 84
2019-09-04 10:00:00 17.4 4 Norte 7 Norte 0 931.4 0.6 92
2019-09-04 09:00:00 15.9 4 Sur 8 Sur 0 931.3 0.5 94
2019-09-04 08:00:00 15.1 5 Sur 9 Sudeste 0 931.1 0.2 93
2019-09-04 07:00:00 16.1 7 Sudeste 9 Sudeste 0 930.8 -0.3 94
2019-09-04 06:00:00 16.9 3 Sudoeste 11 Sudeste 0 930.8 -1 94
2019-09-04 05:00:00 17.1 4 Este 8 Sur 0 930.9 -1.2 94
2019-09-04 04:00:00 17.4 5 Sur 10 Sudeste 0 931.1 -0.7 93
2019-09-04 03:00:00 17.7 8 Sudeste 11 Sudeste 0.4 931.8 -0.5 93
2019-09-04 02:00:00 18.1 4 Este 14 Sur 3.4 932.1 -0.3 92
2019-09-04 01:00:00 18.4 10 Sur 22 Sur 0.2 931.8 -0.2 90
2019-09-04 00:00:00 18 7 Sur 12 Sudeste 0 932.3 0.9 87
2019-09-03 23:00:00 19 5 Sudeste 9 Sudeste 0 932.4 0.8 90
2019-09-03 22:00:00 19.9 2 Sudoeste 10 Norte 0 932 0.3 87
2019-09-03 21:00:00 20.5 4 Este 8 Sur 0 931.4 0.5 84
2019-09-03 20:00:00 21.4 6 Sudeste 19 Sudoeste 1.8 931.6 0.1 80
2019-09-03 19:00:00 20.6 12 Oeste 20 Oeste 3.6 931.7 1.6 80
2019-09-03 18:00:00 19.9 14 Sur -- -- -- 930.9 -0.1 66
2019-09-03 17:00:00 22.2 18 Noroeste 46 Sudoeste 4.8 931.5 -0.1 67
2019-09-03 16:00:00 30.9 9 Norte 20 Norte 0 930.1 -2.2 27
2019-09-03 15:00:00 33.5 10 Sudeste 19 Sudeste 0 931 -1.6 23
2019-09-03 14:00:00 30.4 6 Norte 15 Noroeste 0 931.6 -1.1 32
2019-09-03 13:00:00 26.9 6 Nordeste 14 Norte 0 932.3 -0.3 45
2019-09-03 12:00:00 24.6 9 Norte 13 Norte 0 932.6 0.1 57
2019-09-03 11:00:00 20.9 5 Norte 10 Nordeste 0 932.7 0.7 74
2019-09-03 10:00:00 18.4 6 Norte 9 Norte 0 932.6 0.9 81
2019-09-03 09:00:00 16.5 4 Norte 6 Norte 0 932.5 1.2 89
2019-09-03 08:00:00 15.9 3 Sur 8 Sudeste 0 932 0.6 88
2019-09-03 07:00:00 16.2 2 Sudoeste 6 Oeste 0 931.7 0.3 84
2019-09-03 06:00:00 16.9 4 Norte 9 Este 0 931.3 -0.3 84
2019-09-03 05:00:00 17.9 4 Sudeste 12 Sudeste 0 931.4 -0.1 87
2019-09-03 04:00:00 18.3 6 Sudeste 19 Sudeste 0 931.4 0.2 84
2019-09-03 03:00:00 18.7 7 Sur 15 Sudeste 0 931.6 0.9 84
2019-09-03 02:00:00 19.4 9 Sur 18 Sur 0 931.5 1 75
2019-09-03 01:00:00 20.8 5 Sudeste 15 Sudeste 0 931.2 0.9 60
2019-09-03 00:00:00 21.5 4 Sudeste 15 Sudeste 0 930.7 1.2 58
2019-09-02 23:00:00 22.6 8 Sudeste 17 Este 0 930.5 1.6 53
2019-09-02 22:00:00 23.2 9 Sudeste 26 Sur 0 930.3 1.8 49
2019-09-02 21:00:00 24.3 13 Sur 22 Sur 0 929.5 0.9 46
2019-09-02 20:00:00 26.7 10 Sudeste 24 Sudeste 0 928.9 0.3 38
2019-09-02 19:00:00 28.8 16 Sudeste 30 Sudeste 0 928.5 -0.1 33
2019-09-02 18:00:00 27.4 14 Sudeste 28 Sudeste 0 928.6 -0.7 38
2019-09-02 17:00:00 27.8 17 Sudeste 31 Este 0 928.6 -1.1 37
2019-09-02 16:00:00 32.2 14 Sudeste 26 Sudeste 0 928.6 -1.1 29
2019-09-02 15:00:00 31.2 16 Sudeste 31 Sudeste 0 929.3 -0.5 30
2019-09-02 14:00:00 28.1 17 Sudeste 37 Este 0 929.7 0.1 35
2019-09-02 13:00:00 28.9 21 Sudeste 34 Sudeste 0 929.7 0.7 31
2019-09-02 12:00:00 25.8 14 Sudeste 28 Sudeste 0 929.8 1.4 51
2019-09-02 11:00:00 23.8 16 Sudeste 26 Sudeste 0 929.6 2 64
2019-09-02 10:00:00 21.3 14 Sudeste 24 Sudeste 0 929 1.9 75
2019-09-02 09:00:00 18.5 4 Sudeste 7 Oeste 0 928.4 1.6 75
2019-09-02 08:00:00 18.6 4 Oeste 6 Oeste 0 927.6 0.6 73
2019-09-02 07:00:00 19 4 Noroeste 7 Oeste 0 927.1 0 71
2019-09-02 06:00:00 19 7 Sudeste 9 Sudeste 0 926.8 -0.4 67
2019-09-02 05:00:00 19.6 0 Calma 8 Sur 0 927 -0.1 64
2019-09-02 04:00:00 19.4 5 Sudeste 9 Sudeste 0 927.1 0.1 67
2019-09-02 03:00:00 21.2 5 Oeste 6 Oeste 0 927.2 0 62
2019-09-02 02:00:00 21.3 3 Oeste 6 Sur 0 927.1 0 60
2019-09-02 01:00:00 22.1 7 Sur 12 Sudeste 0 927 0.3 58
2019-09-02 00:00:00 22.6 8 Sudeste 10 Sudeste 0 927.2 1.5 57
2019-09-01 23:00:00 25.1 3 Este 11 Este 0 927.1 1.9 48
2019-09-01 22:00:00 26.1 4 Nordeste 17 Sudeste 0 926.7 1.8 44
2019-09-01 21:00:00 27.2 12 Sudeste 31 Sudeste 0 925.7 0.9 40
2019-09-01 20:00:00 29.6 17 Sudeste 37 Sudeste 0 925.2 0.2 33
2019-09-01 19:00:00 33.2 18 Este 34 Sudeste 0 924.9 -0.8 24
2019-09-01 18:00:00 33.5 17 Norte 24 Norte 0 924.8 -1.6 20
2019-09-01 17:00:00 34.8 6 Este 23 Norte 0 925 -1.8 18
2019-09-01 16:00:00 33.3 9 Nordeste 23 Norte 0 925.7 -2 19
2019-09-01 15:00:00 32.8 9 Noroeste 21 Norte 0 926.4 -1.7 21
2019-09-01 14:00:00 32.1 5 Nordeste 16 Noroeste 0 926.8 -1.5 26
2019-09-01 13:00:00 28.6 4 Norte 10 Norte 0 927.7 -0.6 36
2019-09-01 12:00:00 24.8 6 Norte 13 Norte 0 928.1 0 49
2019-09-01 11:00:00 21.1 4 Norte 8 Norte 0 928.3 0.5 63
2019-09-01 10:00:00 17.9 3 Oeste 7 Noroeste 0 928.3 0.9 77
2019-09-01 09:00:00 15.7 3 Sudeste 6 Sudoeste 0 928.1 0.7 83
2019-09-01 08:00:00 14.6 4 Sur 6 Sudeste 0 927.8 0.3 84
2019-09-01 07:00:00 15.1 4 Sudeste 8 Sur 0 927.4 -0.4 85
2019-09-01 06:00:00 15.6 4 Sudeste 7 Oeste 0 927.4 -0.7 83
2019-09-01 05:00:00 17.7 5 Oeste 8 Oeste 0 927.5 -1.1 76
2019-09-01 04:00:00 17.4 0 Calma 12 Sudeste 0 927.8 -0.7 74
2019-09-01 03:00:00 18.2 7 Sudeste 11 Sur 0 928.1 -0.4 74
2019-09-01 02:00:00 19.7 6 Sudoeste 10 Sudoeste 0 928.6 0.1 68
2019-09-01 01:00:00 20.7 4 Nordeste 11 Sudeste 0 928.5 0.5 65
2019-09-01 00:00:00 22.2 4 Este 17 Sudeste 0 928.5 1.1 58
2019-08-31 23:00:00 23.2 10 Sudeste 24 Sudeste 0 928.5 1.7 55
2019-08-31 22:00:00 24.3 11 Sudeste 21 Sudeste 0 928 1.8 52
2019-08-31 21:00:00 27.3 12 Sudeste 23 Nordeste 0 927.4 1.1 43
2019-08-31 20:00:00 30.7 9 Sudeste 22 Sudeste 0 926.8 0.2 33
2019-08-31 19:00:00 31.1 4 Este 18 Nordeste 0 926.2 -1.3 24
2019-08-31 18:00:00 31.1 10 Nordeste 21 Nordeste 0 926.3 -2.1 25
2019-08-31 17:00:00 33.4 8 Noroeste 22 Norte 0 926.6 -2.5 22
2019-08-31 16:00:00 31.6 10 Norte 21 Norte 0 927.5 -2.1 24
2019-08-31 15:00:00 30.7 9 Norte 19 Norte 0 928.4 -1.5 26
2019-08-31 14:00:00 29 9 Norte 16 Norte 0 929.1 -0.9 34
2019-08-31 13:00:00 26.4 5 Nordeste 12 Nordeste 0 929.6 -0.4 40
2019-08-31 12:00:00 23.2 5 Norte 10 Norte 0 929.9 0.2 52
2019-08-31 11:00:00 18.4 2 Sudoeste 8 Noroeste 0 930 0.7 73
2019-08-31 10:00:00 16.3 4 Norte 7 Norte 0 930 0.9 88
2019-08-31 09:00:00 15.1 2 Sur 7 Sur 0 929.7 0.7 90
2019-08-31 08:00:00 14.8 5 Sur 9 Este 0 929.3 0.2 89
2019-08-31 07:00:00 15.7 6 Este 8 Este 0 929.1 0.2 87
2019-08-31 06:00:00 17.2 4 Oeste 14 Noroeste 0 929 -1.4 82
2019-08-31 05:00:00 18.1 9 Noroeste 24 Norte 0 929.1 -3.1 76
2019-08-31 04:00:00 19.8 5 Este 27 Sudeste 0 928.9 -3.7 59
2019-08-31 03:00:00 18.4 12 Sudeste 18 Sudeste 0 930.4 -1.8 74
2019-08-31 02:00:00 19.4 6 Sur 15 Oeste 0 932.2 0.8 69
2019-08-31 01:00:00 20 10 Noroeste 25 Noroeste 0 932.6 2.3 60
2019-08-31 00:00:00 20.6 5 Oeste 12 Nordeste 0 932.2 2.5 61
2019-08-30 23:00:00 21.1 5 Sur 19 Sudeste 0 931.4 1.8 58
2019-08-30 22:00:00 22.1 14 Sudeste 23 Sur 0 930.3 0.9 56
2019-08-30 21:00:00 23.7 10 Sur 22 Sudeste 0 929.7 0.4 56
2019-08-30 20:00:00 25.3 13 Sudeste 28 Sudeste 2.6 929.6 0.3 52
2019-08-30 19:00:00 26.9 13 Sudeste 24 Sudeste 1 929.4 -0.3 52
2019-08-30 18:00:00 23.1 15 Este 57 Norte 0.2 929.3 -1.1 68
2019-08-30 17:00:00 32.1 13 Este 35 Nordeste 0 929.3 -1.9 26
2019-08-30 16:00:00 33.9 6 Sudeste 23 Sudeste 0 929.7 -2.2 19
2019-08-30 15:00:00 33.6 8 Sur 19 Sudoeste 0 930.4 -1.8 21
2019-08-30 14:00:00 31.1 8 Norte 15 Norte 0 931.2 -1.3 25
2019-08-30 13:00:00 28.8 7 Norte 14 Noroeste 0 931.9 -0.7 32
2019-08-30 12:00:00 24.9 3 Nordeste 10 Noroeste 0 932.2 -0.4 43
2019-08-30 11:00:00 20.6 2 Norte 7 Norte 0 932.5 0.3 64
2019-08-30 10:00:00 17.6 4 Noroeste 8 Norte 0 932.6 0.5 75
2019-08-30 09:00:00 15.6 2 Este 10 Sur 0 932.6 0.7 83
2019-08-30 08:00:00 14 6 Sudeste 9 Sudeste 0 932.2 0.4 87
2019-08-30 07:00:00 14.3 6 Sudeste 8 Sudeste 0 932.1 0.1 84
2019-08-30 06:00:00 15.6 3 Sur 5 Oeste 0 931.9 -0.3 79
2019-08-30 05:00:00 16.9 4 Oeste 8 Oeste 0 931.8 -0.7 76
2019-08-30 04:00:00 17.3 4 Sudeste 8 Sur 0 932 -0.6 75
2019-08-30 03:00:00 17.9 4 Sudeste 8 Sur 0 932.2 -0.3 72
2019-08-30 02:00:00 18.1 8 Sudeste 10 Sudeste 0 932.5 0.5 74
2019-08-30 01:00:00 20.2 3 Sudoeste 9 Noroeste 0 932.6 0.8 62
2019-08-30 00:00:00 21.4 7 Oeste 13 Nordeste 0 932.5 0.8 59
2019-08-29 23:00:00 22 8 Nordeste 20 Sudeste 0 932 0.9 61
2019-08-29 22:00:00 23.3 14 Sudeste 24 Sudeste 0 931.8 2.1 55
2019-08-29 21:00:00 25.8 10 Sur 23 Este 0 931.7 2.2 45
2019-08-29 20:00:00 27.3 7 Este 33 Este 0 931.1 1.3 38
2019-08-29 19:00:00 30.2 22 Sudeste 37 Este 0 929.7 -0.4 32
2019-08-29 18:00:00 32.9 22 Sudeste 45 Este 0 929.5 -0.9 27
2019-08-29 17:00:00 34.5 16 Sudeste 31 Sudeste 0 929.8 -0.8 21
2019-08-29 16:00:00 34.1 13 Sur 37 Sudeste 0 930.1 -1 20
2019-08-29 15:00:00 34.2 10 Sudeste 23 Sudeste 0 930.4 -0.9 19
2019-08-29 14:00:00 31.5 7 Nordeste 18 Sudeste 0 930.6 -0.7 25
2019-08-29 13:00:00 29 3 Oeste 12 Nordeste 0 931.1 -0.3 32
2019-08-29 12:00:00 25.5 4 Nordeste 10 Norte 0 931.3 0.2 41
2019-08-29 11:00:00 22.5 3 Noroeste 10 Noroeste 0 931.3 0.6 54
2019-08-29 10:00:00 18.8 3 Norte 6 Norte 0 931.4 1 68
2019-08-29 09:00:00 16 2 Este 9 Sudeste 0 931.1 1 81
2019-08-29 08:00:00 14.9 6 Sudeste 9 Sudeste 0 930.7 0.5 80
2019-08-29 07:00:00 15.2 7 Sur 11 Sur 0 930.4 0.1 84
2019-08-29 06:00:00 15.8 5 Sudeste 10 Sudeste 0 930.1 -0.7 85
2019-08-29 05:00:00 16.4 7 Sur 10 Sur 0 930.2 -0.6 80
2019-08-29 04:00:00 16.8 8 Sur 11 Sur 0 930.3 -0.1 75
2019-08-29 03:00:00 18.2 6 Sudeste 9 Este 0 930.8 0.2 81
2019-08-29 02:00:00 19.6 4 Este 8 Sudeste 0 930.8 0.8 75
2019-08-29 01:00:00 20.4 8 Sur 14 Sudeste 0 930.4 1.3 72
2019-08-29 00:00:00 21.3 6 Sudeste 16 Sudeste 0 930.6 2.7 65
2019-08-28 23:00:00 22 8 Sudeste 20 Sur 0 930 2.6 65
2019-08-28 22:00:00 23.4 7 Sudeste 23 Sur 0 929.1 2 57
2019-08-28 21:00:00 25.4 15 Sur 30 Sudeste 0 927.9 0.6 50
2019-08-28 20:00:00 29.1 19 Sudeste 31 Sudeste 0 927.4 -0.1 33
2019-08-28 19:00:00 33.4 10 Sur 23 Sudeste 0 927.1 -0.9 25
2019-08-28 18:00:00 33.2 7 Noroeste 24 Noroeste 0 927.3 -1.2 17
2019-08-28 17:00:00 32.6 9 Norte 24 Norte 0 927.5 -1.6 19
2019-08-28 16:00:00 32.3 9 Noroeste 22 Nordeste 0 928 -1.5 19
2019-08-28 15:00:00 31 9 Norte 22 Norte 0 928.5 -1.4 23
2019-08-28 14:00:00 30.1 9 Noroeste 21 Norte 0 929.1 -0.9 22
2019-08-28 13:00:00 27.8 9 Norte 17 Norte 0 929.5 -0.4 31
2019-08-28 12:00:00 24.2 4 Norte 10 Noroeste 0 929.9 0.1 48
2019-08-28 11:00:00 19.7 4 Oeste 7 Noroeste 0 930 0.5 66
2019-08-28 10:00:00 17.2 5 Norte 9 Norte 0 929.9 0.6 76
2019-08-28 09:00:00 14.3 3 Sur 5 Sudeste 0 929.8 0.7 89
2019-08-28 08:00:00 13.4 2 Oeste 6 Oeste 0 929.5 0.5 84
2019-08-28 07:00:00 13.5 0 Calma 8 Sudeste 0 929.3 0.2 83
2019-08-28 06:00:00 14.2 7 Sudeste 10 Sudeste 0 929.1 -0.4 85
2019-08-28 05:00:00 14.8 7 Sudeste 10 Sudeste 0 929 -0.5 86
2019-08-28 04:00:00 15.5 8 Sudeste 9 Sudeste 0 929.1 -0.4 87
2019-08-28 03:00:00 17.6 3 Sudoeste 5 Sudoeste 0 929.5 0.2 85
2019-08-28 02:00:00 18.6 2 Este 8 Nordeste 0 929.5 0.6 84
2019-08-28 01:00:00 19.1 3 Este 15 Sudeste 0 929.5 1.3 84
2019-08-28 00:00:00 19.6 9 Sur 22 Sudeste 0 929.3 2.1 83
2019-08-27 23:00:00 20.4 13 Sudeste 32 Sudeste 0 928.9 2.5 79
2019-08-27 22:00:00 22.7 15 Sudeste 28 Sudeste 0 928.2 2.1 66
2019-08-27 21:00:00 25.9 11 Oeste 24 Oeste 0 927.2 1.2 32
2019-08-27 20:00:00 27.8 15 Oeste 29 Oeste 0 926.4 0.4 26
2019-08-27 19:00:00 29.1 18 Oeste 32 Oeste 0 926.1 -0.3 24
2019-08-27 18:00:00 29.7 19 Oeste 37 Oeste 0 926 -0.9 22
2019-08-27 17:00:00 29.9 16 Oeste 30 Oeste 0 926 -1.1 21
2019-08-27 16:00:00 29.4 18 Oeste 33 Oeste 0 926.4 -1.2 22
2019-08-27 15:00:00 29.2 12 Oeste 28 Noroeste 0 926.9 -1 23
2019-08-27 14:00:00 28 12 Oeste 24 Oeste 0 927.1 -0.8 25
2019-08-27 13:00:00 26.5 9 Norte 20 Norte 0 927.6 -0.3 35
2019-08-27 12:00:00 24.1 5 Noroeste 14 Noroeste 0 927.9 0.1 45
2019-08-27 11:00:00 20.4 4 Oeste 10 Noroeste 0 927.9 0.7 62
2019-08-27 10:00:00 17.9 3 Noroeste 8 Noroeste 0 927.9 0.9 75
2019-08-27 09:00:00 16.1 3 Oeste 6 Sudeste 0 927.8 0.9 83
2019-08-27 08:00:00 14.9 7 Sudeste 10 Sudeste 0 927.2 0.6 84
2019-08-27 07:00:00 15.3 7 Sudeste 10 Sudeste 0 927 0.6 83
2019-08-27 06:00:00 16.6 5 Sudoeste 9 Oeste 0 926.9 0 78
2019-08-27 05:00:00 17 5 Este 9 Noroeste 0 926.6 -0.4 76
2019-08-27 04:00:00 18.4 8 Oeste 13 Oeste 0 926.4 -0.7 71
2019-08-27 03:00:00 18.6 6 Nordeste 12 Sudeste 0 926.9 -0.2 86
2019-08-27 02:00:00 19.6 6 Sudeste 15 Sur 0 927 0.8 82
2019-08-27 01:00:00 20.7 10 Sur 28 Sudeste 0 927.1 1.8 76
2019-08-27 00:00:00 21.4 15 Sudeste 26 Sudeste 0 927.1 2.5 73
2019-08-26 23:00:00 21.8 6 Sur 33 Sudeste 0 926.2 1.9 70
2019-08-26 22:00:00 22.4 21 Sudeste 39 Sudeste 0 925.3 0.9 68
2019-08-26 21:00:00 23.2 17 Sudeste 30 Sudeste 0 924.6 0 66
2019-08-26 20:00:00 25.9 14 Sudeste 31 Este 0 924.3 -0.5 53
2019-08-26 19:00:00 28 16 Sudeste 32 Este 0 924.4 -0.6 43
2019-08-26 18:00:00 29.6 18 Sudeste 31 Sudeste 0 924.6 -1.2 39
2019-08-26 17:00:00 30.2 14 Sudeste 32 Sudeste 0 924.8 -1.4 36
2019-08-26 16:00:00 29.7 17 Sudeste 33 Sudeste 0 925 -1.9 35
2019-08-26 15:00:00 29.9 16 Sudeste 31 Sur 0 925.8 -1.2 34
2019-08-26 14:00:00 27.9 13 Sudeste 33 Sudeste 0 926.2 -0.5 43
2019-08-26 13:00:00 25.5 10 Sudeste 25 Sur 0 926.9 0.2 49
2019-08-26 12:00:00 24.9 11 Sudeste 26 Sudeste 0 927 0.4 50
2019-08-26 11:00:00 22.2 4 Norte 23 Sudeste 0 926.7 0.2 61
2019-08-26 10:00:00 20 6 Este 23 Sudeste 0 926.7 0.2 73
2019-08-26 09:00:00 17.7 3 Norte 9 Este 0 926.6 -0.2 84
2019-08-26 08:00:00 16.7 5 Norte 10 Norte 0 926.5 -1 84
2019-08-26 07:00:00 17.5 8 Sudeste 18 Sudeste 0 926.5 -1.3 87
2019-08-26 06:00:00 17.5 4 Nordeste 10 Este 0 926.8 -1.2 85
2019-08-26 05:00:00 18.1 5 Sudeste 16 Sudeste 0 927.5 -0.3 85
2019-08-26 04:00:00 18.6 10 Sur 17 Sur 0 927.8 -0.2 83
2019-08-26 03:00:00 19.3 7 Sudeste 21 Sudeste 0 928 -0.6 79
2019-08-26 02:00:00 20.1 11 Sudeste 23 Sudeste 0 927.8 -0.8 73
2019-08-26 01:00:00 20.5 10 Sudeste 21 Sudeste 0 928 -0.2 73
2019-08-26 00:00:00 20.8 11 Sudeste 22 Sudeste 0 928.6 1.4 71
2019-08-25 23:00:00 21.1 12 Sudeste 25 Sudeste 0 928.6 2 68
2019-08-25 22:00:00 21.8 15 Sudeste 28 Sudeste 0 928.2 1.8 66
2019-08-25 21:00:00 23.7 14 Sudeste 28 Sudeste 0 927.2 0.8 57
2019-08-25 20:00:00 26.9 15 Sudeste 34 Sudeste 0 926.6 0.2 45
2019-08-25 19:00:00 29.5 20 Sudeste 37 Sudeste 0 926.4 -0.4 37
2019-08-25 18:00:00 31 23 Sudeste 39 Sudeste 0 926.4 -0.9 31
2019-08-25 17:00:00 33.2 17 Sudeste 34 Sudeste 0 926.4 -1.5 23
2019-08-25 16:00:00 31 8 Este 33 Sudeste 0 926.8 -1.7 24
2019-08-25 15:00:00 32.4 16 Sudeste 31 Sudeste 0 927.3 -2 24
2019-08-25 14:00:00 31.2 14 Sudeste 24 Este 0 927.9 -1.7 24
2019-08-25 13:00:00 28.6 7 Este 26 Este 0 928.5 -1.2 26
2019-08-25 12:00:00 26.4 10 Este 19 Sudeste 0 929.3 -0.1 33
2019-08-25 11:00:00 21.4 6 Norte 13 Norte 0 929.6 0.5 63
2019-08-25 10:00:00 18 3 Norte 7 Norte 0 929.7 0.6 73
2019-08-25 09:00:00 14.7 4 Sudeste 9 Sur 0 929.4 0.3 69
2019-08-25 08:00:00 13.5 6 Sudeste 13 Sudeste 0 929.1 -0.4 79
2019-08-25 07:00:00 14.7 4 Sur 8 Sudeste 0 929.1 -0.6 87
2019-08-25 06:00:00 15.8 6 Sudeste 9 Este 0 929.1 -0.8 88
2019-08-25 05:00:00 17 6 Sudeste 12 Sudeste 0 929.5 -0.6 87
2019-08-25 04:00:00 17.4 4 Nordeste 7 Nordeste 0 929.7 -0.3 85
2019-08-25 03:00:00 18.4 3 Nordeste 15 Sudeste 0 929.9 -0.2 82
2019-08-25 02:00:00 19.1 9 Sudeste 23 Sudeste 0 930.1 0.2 80
2019-08-25 01:00:00 19.9 11 Sudeste 22 Sudeste 0 930 0.6 77
2019-08-25 00:00:00 21 13 Sudeste 29 Sudeste 0 930.1 1.3 71
2019-08-24 23:00:00 21.9 14 Sudeste 24 Sudeste 0 929.9 1.6 65
2019-08-24 22:00:00 23.1 14 Sudeste 27 Sudeste 0 929.4 1.3 58
2019-08-24 21:00:00 25 16 Sudeste 33 Sudeste 0 928.8 0.8 51
2019-08-24 20:00:00 28.1 15 Sudeste 32 Sudeste 0 928.3 0.1 40
2019-08-24 19:00:00 30.6 18 Sudeste 35 Sudeste 0 928.1 -0.4 31
2019-08-24 18:00:00 32.3 23 Sudeste 35 Sudeste 0 928 -1 25
2019-08-24 17:00:00 34.2 14 Sudeste 31 Sudeste 0 928.2 -1.2 19
2019-08-24 16:00:00 33.6 16 Sudeste 30 Sudeste 0 928.5 -1.6 19
2019-08-24 15:00:00 33.3 13 Sudeste 30 Sudeste 0 929 -1.5 17
2019-08-24 14:00:00 32.6 14 Sudeste 29 Sudeste 0 929.4 -1.4 16
2019-08-24 13:00:00 29.9 8 Sudeste 16 Este 0 930.1 -0.5 19
2019-08-24 12:00:00 25.3 4 Norte 9 Norte 0 930.5 0 29
2019-08-24 11:00:00 20.3 5 Norte 10 Norte 0 930.8 0.6 53
2019-08-24 10:00:00 17.2 3 Nordeste 6 Nordeste 0 930.6 0.3 67
2019-08-24 09:00:00 13.6 3 Sudeste 7 Sur 0 930.5 0.1 79
2019-08-24 08:00:00 12.4 5 Sudeste 9 Este 0 930.2 -0.4 78
2019-08-24 07:00:00 13.4 8 Sudeste 12 Sur 0 930.3 -0.3 80
2019-08-24 06:00:00 14 9 Sudeste 12 Sudeste 0 930.4 -0.5 80
2019-08-24 05:00:00 15.3 5 Sur 8 Sudoeste 0 930.6 -0.4 81
2019-08-24 04:00:00 16 7 Este 11 Este 0 930.6 -0.4 80
2019-08-24 03:00:00 16.4 4 Este 9 Sudeste 0 930.9 0.1 74
2019-08-24 02:00:00 17.4 8 Sudeste 12 Sudeste 0 931 0.4 69
2019-08-24 01:00:00 19 5 Este 15 Sudeste 0 931 0.9 57
2019-08-24 00:00:00 20.6 8 Sudeste 21 Sur 0 930.8 1.6 50
2019-08-23 23:00:00 21.6 13 Sudeste 29 Sudeste 0 930.6 2 52
2019-08-23 22:00:00 22.3 14 Sudeste 32 Sudeste 0 930.1 1.6 58
2019-08-23 21:00:00 24.5 19 Sudeste 33 Sudeste 0 929.2 0.7 50
2019-08-23 20:00:00 27.5 17 Sudeste 36 Sudeste 0 928.6 0 43
2019-08-23 19:00:00 29.8 21 Sudeste 35 Sudeste 0 928.5 -0.6 34
2019-08-23 18:00:00 32 20 Sudeste 31 Sur 0 928.5 -1.3 22
2019-08-23 17:00:00 33.6 11 Sudeste 30 Este 0 928.6 -1.6 19
2019-08-23 16:00:00 32.7 11 Sudeste 28 Sudeste 0 929.1 -1.7 19
2019-08-23 15:00:00 32.5 13 Sudeste 28 Sudeste 0 929.8 -1.6 19
2019-08-23 14:00:00 31.1 10 Sudeste 25 Sudeste 0 930.2 -1.6 20
2019-08-23 13:00:00 28.9 14 Sudeste 24 Sudeste 0 930.8 -1.1 22
2019-08-23 12:00:00 25.3 6 Este 20 Norte 0 931.4 -0.2 32
2019-08-23 11:00:00 22 6 Este 13 Este 0 931.8 0.4 45
2019-08-23 10:00:00 18.1 3 Sudeste 9 Sudeste 0 931.9 1 56
2019-08-23 09:00:00 14.1 5 Sudeste 9 Sudeste 0 931.6 0.6 73
2019-08-23 08:00:00 12.1 6 Este 11 Sudeste 0 931.4 0.1 82
2019-08-23 07:00:00 13.2 4 Este 15 Sudeste 0 930.9 -0.5 80
2019-08-23 06:00:00 13.7 10 Sudeste 14 Sudeste 0 931 -0.5 85
2019-08-23 05:00:00 14.8 8 Sudeste 11 Este 0 931.3 -0.5 83
2019-08-23 04:00:00 16.1 4 Este 12 Sur 0 931.4 -0.5 80
2019-08-23 03:00:00 17.3 7 Sudeste 9 Sudeste 0 931.5 -0.5 76
2019-08-23 02:00:00 18.7 8 Sudeste 17 Sudeste 0 931.8 0.2 70
2019-08-23 01:00:00 20.1 9 Sudeste 19 Sudeste 0 931.9 1.2 73
2019-08-23 00:00:00 20.9 10 Sudeste 23 Sudeste 0 932 1.9 71
2019-08-22 23:00:00 21.7 15 Sudeste 31 Sudeste 0 931.6 2.2 70
2019-08-22 22:00:00 22.3 17 Sudeste 33 Sudeste 0 930.7 1.5 67
2019-08-22 21:00:00 23.7 19 Sudeste 36 Sudeste 0 930.1 1.1 61
2019-08-22 20:00:00 26.6 22 Sudeste 34 Sudeste 0 929.4 0.2 49
2019-08-22 19:00:00 30.3 18 Sudeste 34 Sudeste 0 929.2 -0.3 34
2019-08-22 18:00:00 32 18 Sudeste 40 Sudeste 0 929 -1 31
2019-08-22 17:00:00 32.8 13 Este 36 Sudeste 0 929.2 -1.3 27
2019-08-22 16:00:00 32.2 9 Este 28 Nordeste 0 929.5 -1.4 26
2019-08-22 15:00:00 31.5 12 Este 30 Sudeste 0 930 -1 28
2019-08-22 14:00:00 30.7 15 Sudeste 29 Sudeste 0 930.5 -0.6 30
2019-08-22 13:00:00 29.1 18 Sudeste 30 Nordeste 0 930.9 -0.5 34
2019-08-22 12:00:00 25.9 7 Este 24 Sur 0 931 -0.4 43
2019-08-22 11:00:00 21.9 4 Nordeste 10 Sudeste 0 931.1 0.2 59
2019-08-22 10:00:00 18.6 5 Norte 10 Norte 0 931.4 0.8 71
2019-08-22 09:00:00 15.5 3 Este 8 Sudeste 0 931.4 0.8 83
2019-08-22 08:00:00 14 5 Sudeste 8 Sudeste 0 930.9 -0.1 83
2019-08-22 07:00:00 14.5 5 Este 9 Este 0 930.6 -0.3 80
2019-08-22 06:00:00 15.4 6 Sudeste 9 Sudeste 0 930.6 -0.9 78
2019-08-22 05:00:00 16.5 2 Oeste 6 Sur 0 931 -0.6 75
2019-08-22 04:00:00 17.3 5 Sudeste 11 Sudeste 0 930.9 -0.7 70
2019-08-22 03:00:00 18.3 7 Sudeste 12 Sudeste 0 931.5 0.2 68
2019-08-22 02:00:00 19.2 6 Sudeste 13 Sudeste 0 931.6 0.5 68
2019-08-22 01:00:00 20.3 8 Sudeste 19 Sudeste 0 931.6 1.3 68
2019-08-22 00:00:00 20.9 12 Sudeste 23 Sudeste 0 931.3 1.9 71
2019-08-21 23:00:00 22 13 Sudeste 27 Sudeste 0 931.1 2.4 71
2019-08-21 22:00:00 22.9 9 Sudeste 28 Sudeste 0 930.3 2.8 69
2019-08-21 21:00:00 24 16 Sudeste 28 Sudeste 0 929.4 1.7 63
2019-08-21 20:00:00 26 8 Norte 36 Sudeste 0 928.7 0.7 51
2019-08-21 19:00:00 28 24 Sudeste 41 Sudeste 0 927.5 -0.8 46
2019-08-21 18:00:00 29.9 21 Sudeste 37 Sudeste 0 927.7 -0.9 41
2019-08-21 17:00:00 31.2 18 Sudeste 34 Sudeste 0 928 -1.1 36
2019-08-21 16:00:00 29.8 16 Sudeste 36 Sudeste 0 928.3 -1.3 40
2019-08-21 15:00:00 31.9 15 Sudeste 30 Este 0 928.6 -1.5 34
2019-08-21 14:00:00 31.5 12 Sudeste 37 Sudeste 0 929.1 -1.2 31
2019-08-21 13:00:00 29.3 17 Sudeste 32 Sudeste 0 929.6 -0.7 38
2019-08-21 12:00:00 27.6 18 Sudeste 32 Sudeste 0 930.1 -0.4 47
2019-08-21 11:00:00 24.7 13 Sudeste 27 Sudeste 0 930.3 0 58
2019-08-21 10:00:00 22 14 Sudeste 23 Sudeste 0 930.3 0.3 74
2019-08-21 09:00:00 18.9 4 Nordeste 8 Este 0 930.5 0.6 87
2019-08-21 08:00:00 18 4 Sudeste 7 Este 0 930.3 0.2 88
2019-08-21 07:00:00 18.8 6 Sudeste 9 Sudeste 0 930 -0.4 87
2019-08-21 06:00:00 19.4 3 Sudeste 6 Este 0 929.9 -0.7 83
2019-08-21 05:00:00 20.1 4 Sudeste 13 Sudeste 0 930.1 -0.4 82
2019-08-21 04:00:00 20.7 6 Sudeste 19 Sudeste 0 930.4 -0.2 80
2019-08-21 03:00:00 21.1 10 Sudeste 18 Sudeste 0 930.6 0.3 81
2019-08-21 02:00:00 21.2 10 Sudeste 21 Sudeste 0 930.5 0.6 79
2019-08-21 01:00:00 21.5 11 Sudeste 26 Sudeste 0 930.6 1.7 77
2019-08-21 00:00:00 22 12 Sudeste 29 Sudeste 0 930.3 2.6 75